This is the latest recevied weather packets stored in our database for station/object K8RLH. If no packets are shown the sender has not sent any weather packets the latest 10 day(s).
| Time | Temp. | Humidity | Pressure | Rain* | Wind** | Luminosity | Snow |
|---|---|---|---|---|---|---|---|
| 1778137252 | 17.78° C | 98% | 1013.6 hPa | 3.05 mm | - | 0 W/m² | - |
| 1778136948 | 17.78° C | 98% | 1013.7 hPa | 3.05 mm | - | 0 W/m² | - |
| 1778136646 | 17.78° C | 98% | 1013.8 hPa | 3.05 mm | - | 0 W/m² | - |
| 1778136343 | 17.78° C | 98% | 1013.9 hPa | 3.56 mm | - | 0 W/m² | - |
| 1778136042 | 17.78° C | 98% | 1014 hPa | 1.78 mm | - | 0 W/m² | - |
| 1778135739 | 17.78° C | 98% | 1014.3 hPa | 4.32 mm | - | 0 W/m² | - |
| 1778135436 | 17.78° C | 98% | 1014.3 hPa | 6.1 mm | - | 0 W/m² | - |
| 1778135133 | 17.78° C | 98% | 1014.6 hPa | 3.05 mm | - | 0 W/m² | - |
| 1778134830 | 17.78° C | 98% | 1014.4 hPa | 3.05 mm | - | 0 W/m² | - |
| 1778134528 | 17.78° C | 98% | 1014.4 hPa | 3.05 mm | - | 0 W/m² | - |
| 1778134226 | 17.78° C | 98% | 1014.3 hPa | 4.32 mm | - | 0 W/m² | - |
| 1778133923 | 17.78° C | 98% | 1014.6 hPa | 7.87 mm | - | 0 W/m² | - |
| 1778133620 | 17.78° C | 98% | 1014.6 hPa | 8.89 mm | - | 0 W/m² | - |
| 1778133320 | 17.78° C | 98% | 1014.6 hPa | 10.16 mm | - | 0 W/m² | - |
| 1778133016 | 17.78° C | 98% | 1014.7 hPa | 10.67 mm | - | 0 W/m² | - |
| 1778132712 | 17.78° C | 98% | 1014.6 hPa | 10.67 mm | - | 0 W/m² | - |
| 1778132410 | 17.78° C | 98% | 1014.8 hPa | 14.99 mm | - | 0 W/m² | - |
| 1778132108 | 17.78° C | 98% | 1014.9 hPa | 11.94 mm | - | 0 W/m² | - |
| 1778131806 | 17.78° C | 98% | 1014.8 hPa | 7.87 mm | - | 0 W/m² | - |
| 1778131503 | 17.78° C | 98% | 1015.3 hPa | 15.49 mm | - | 0 W/m² | - |
| 1778131199 | 17.78° C | 98% | 1015.5 hPa | 22.86 mm | - | 0 W/m² | - |
| 1778130897 | 17.78° C | 98% | 1015.7 hPa | 26.42 mm | - | 0 W/m² | - |
| 1778130594 | 17.78° C | 98% | 1015.5 hPa | 22.86 mm | - | 0 W/m² | - |
| 1778130290 | 17.78° C | 98% | 1015.3 hPa | 10.16 mm | - | 0 W/m² | - |
| 1778129988 | 17.78° C | 98% | 1015 hPa | 7.87 mm | - | 0 W/m² | - |
* Rain latest hour (hover to see other rain measurements)
** Current wind speed in m/s (hover to see current wind gust speed)